sensor_id;sensor_type;location;lat;lon;timestamp;pressure;altitude;pressure_sealevel;temperature
29701;BMP280;57917;51.380;-0.176;2023-08-08T00:02:33;101421.28;;;15.37
29701;BMP280;57917;51.380;-0.176;2023-08-08T00:08:20;101423.16;;;15.37
29701;BMP280;57917;51.380;-0.176;2023-08-08T00:14:07;101415.25;;;15.50
29701;BMP280;57917;51.380;-0.176;2023-08-08T00:19:54;101415.78;;;15.47
29701;BMP280;57917;51.380;-0.176;2023-08-08T00:25:41;101401.91;;;15.50
29701;BMP280;57917;51.380;-0.176;2023-08-08T00:31:28;101395.09;;;15.58
29701;BMP280;57917;51.380;-0.176;2023-08-08T00:37:15;101385.91;;;15.50
29701;BMP280;57917;51.380;-0.176;2023-08-08T00:43:02;101383.84;;;15.61
29701;BMP280;57917;51.380;-0.176;2023-08-08T00:48:51;101376.38;;;15.44
29701;BMP280;57917;51.380;-0.176;2023-08-08T00:54:40;101364.69;;;15.40
29701;BMP280;57917;51.380;-0.176;2023-08-08T01:00:27;101368.75;;;15.19
29701;BMP280;57917;51.380;-0.176;2023-08-08T01:07:20;101369.47;;;15.25
29701;BMP280;57917;51.380;-0.176;2023-08-08T01:12:53;101368.28;;;15.17
29701;BMP280;57917;51.380;-0.176;2023-08-08T01:18:42;101358.09;;;15.19
29701;BMP280;57917;51.380;-0.176;2023-08-08T01:24:32;101362.41;;;15.15
29701;BMP280;57917;51.380;-0.176;2023-08-08T01:30:21;101346.66;;;15.00
29701;BMP280;57917;51.380;-0.176;2023-08-08T01:36:21;101359.34;;;14.85
29701;BMP280;57917;51.380;-0.176;2023-08-08T01:42:10;101351.09;;;14.86
29701;BMP280;57917;51.380;-0.176;2023-08-08T01:47:58;101345.84;;;14.81
29701;BMP280;57917;51.380;-0.176;2023-08-08T01:53:48;101346.47;;;14.73
29701;BMP280;57917;51.380;-0.176;2023-08-08T01:59:34;101365.16;;;14.92
29701;BMP280;57917;51.380;-0.176;2023-08-08T02:05:21;101364.16;;;14.88
29701;BMP280;57917;51.380;-0.176;2023-08-08T02:11:08;101361.63;;;14.78
29701;BMP280;57917;51.380;-0.176;2023-08-08T02:16:55;101369.75;;;14.68
29701;BMP280;57917;51.380;-0.176;2023-08-08T02:22:42;101356.81;;;14.56
29701;BMP280;57917;51.380;-0.176;2023-08-08T02:28:30;101357.31;;;14.58
29701;BMP280;57917;51.380;-0.176;2023-08-08T02:34:17;101356.66;;;14.48
29701;BMP280;57917;51.380;-0.176;2023-08-08T02:40:05;101337.50;;;14.45
29701;BMP280;57917;51.380;-0.176;2023-08-08T02:45:52;101326.69;;;14.37
29701;BMP280;57917;51.380;-0.176;2023-08-08T02:51:41;101342.72;;;14.32
29701;BMP280;57917;51.380;-0.176;2023-08-08T02:57:28;101335.81;;;14.31
29701;BMP280;57917;51.380;-0.176;2023-08-08T03:03:16;101331.38;;;13.98
29701;BMP280;57917;51.380;-0.176;2023-08-08T03:09:04;101337.09;;;14.10
29701;BMP280;57917;51.380;-0.176;2023-08-08T03:14:51;101342.38;;;14.15
29701;BMP280;57917;51.380;-0.176;2023-08-08T03:20:41;101343.34;;;14.00
29701;BMP280;57917;51.380;-0.176;2023-08-08T03:26:31;101348.88;;;14.04
29701;BMP280;57917;51.380;-0.176;2023-08-08T03:32:18;101356.09;;;14.03
29701;BMP280;57917;51.380;-0.176;2023-08-08T03:38:05;101355.81;;;14.05
29701;BMP280;57917;51.380;-0.176;2023-08-08T03:43:53;101347.81;;;14.28
29701;BMP280;57917;51.380;-0.176;2023-08-08T03:49:40;101370.16;;;14.32
29701;BMP280;57917;51.380;-0.176;2023-08-08T03:55:26;101346.47;;;14.31
29701;BMP280;57917;51.380;-0.176;2023-08-08T04:01:14;101330.50;;;14.31
29701;BMP280;57917;51.380;-0.176;2023-08-08T04:07:01;101340.44;;;14.44
29701;BMP280;57917;51.380;-0.176;2023-08-08T04:12:48;101337.25;;;14.47
29701;BMP280;57917;51.380;-0.176;2023-08-08T04:18:34;101345.09;;;14.33
29701;BMP280;57917;51.380;-0.176;2023-08-08T04:24:21;101351.94;;;14.39
29701;BMP280;57917;51.380;-0.176;2023-08-08T04:30:09;101363.19;;;14.36
29701;BMP280;57917;51.380;-0.176;2023-08-08T04:35:56;101348.28;;;14.59
29701;BMP280;57917;51.380;-0.176;2023-08-08T04:41:43;101350.34;;;14.62
29701;BMP280;57917;51.380;-0.176;2023-08-08T04:47:30;101347.19;;;14.60
29701;BMP280;57917;51.380;-0.176;2023-08-08T04:53:17;101345.44;;;14.51
29701;BMP280;57917;51.380;-0.176;2023-08-08T04:59:06;101352.81;;;14.35
29701;BMP280;57917;51.380;-0.176;2023-08-08T05:04:52;101357.16;;;14.49
29701;BMP280;57917;51.380;-0.176;2023-08-08T05:10:39;101344.72;;;14.45
29701;BMP280;57917;51.380;-0.176;2023-08-08T05:16:26;101343.09;;;14.44
29701;BMP280;57917;51.380;-0.176;2023-08-08T05:22:14;101329.69;;;14.54
29701;BMP280;57917;51.380;-0.176;2023-08-08T05:28:03;101339.31;;;14.69
29701;BMP280;57917;51.380;-0.176;2023-08-08T05:33:50;101310.53;;;15.85
29701;BMP280;57917;51.380;-0.176;2023-08-08T05:39:36;101315.66;;;16.36
29701;BMP280;57917;51.380;-0.176;2023-08-08T05:45:23;101308.56;;;16.54
29701;BMP280;57917;51.380;-0.176;2023-08-08T05:51:10;101314.16;;;15.89
29701;BMP280;57917;51.380;-0.176;2023-08-08T05:56:57;101321.47;;;15.70
29701;BMP280;57917;51.380;-0.176;2023-08-08T06:02:44;101324.19;;;15.52
29701;BMP280;57917;51.380;-0.176;2023-08-08T06:08:30;101313.25;;;15.67
29701;BMP280;57917;51.380;-0.176;2023-08-08T06:14:18;101316.13;;;15.70
29701;BMP280;57917;51.380;-0.176;2023-08-08T06:20:05;101323.25;;;15.75
29701;BMP280;57917;51.380;-0.176;2023-08-08T06:25:53;101320.91;;;16.00
29701;BMP280;57917;51.380;-0.176;2023-08-08T06:31:41;101327.22;;;16.18
29701;BMP280;57917;51.380;-0.176;2023-08-08T06:37:28;101338.25;;;16.30
29701;BMP280;57917;51.380;-0.176;2023-08-08T06:43:14;101316.53;;;16.45
29701;BMP280;57917;51.380;-0.176;2023-08-08T06:49:01;101319.50;;;17.01
29701;BMP280;57917;51.380;-0.176;2023-08-08T06:54:48;101309.34;;;17.12
29701;BMP280;57917;51.380;-0.176;2023-08-08T07:00:36;101313.41;;;17.01
29701;BMP280;57917;51.380;-0.176;2023-08-08T07:06:23;101323.56;;;16.77
29701;BMP280;57917;51.380;-0.176;2023-08-08T07:12:12;101309.13;;;16.78
29701;BMP280;57917;51.380;-0.176;2023-08-08T07:17:59;101313.00;;;16.94
29701;BMP280;57917;51.380;-0.176;2023-08-08T07:23:46;101318.22;;;16.77
29701;BMP280;57917;51.380;-0.176;2023-08-08T07:29:33;101319.53;;;16.66
29701;BMP280;57917;51.380;-0.176;2023-08-08T07:35:20;101323.53;;;16.41
29701;BMP280;57917;51.380;-0.176;2023-08-08T07:41:07;101335.63;;;16.38
29701;BMP280;57917;51.380;-0.176;2023-08-08T07:46:53;101334.94;;;16.47
29701;BMP280;57917;51.380;-0.176;2023-08-08T07:52:42;101330.78;;;16.41
29701;BMP280;57917;51.380;-0.176;2023-08-08T07:58:29;101335.22;;;16.45
29701;BMP280;57917;51.380;-0.176;2023-08-08T08:04:18;101343.22;;;16.59
29701;BMP280;57917;51.380;-0.176;2023-08-08T08:10:07;101331.56;;;16.55
29701;BMP280;57917;51.380;-0.176;2023-08-08T08:15:55;101342.84;;;16.65
29701;BMP280;57917;51.380;-0.176;2023-08-08T08:21:43;101339.09;;;16.53
29701;BMP280;57917;51.380;-0.176;2023-08-08T08:27:29;101339.81;;;16.45
29701;BMP280;57917;51.380;-0.176;2023-08-08T08:33:16;101345.59;;;16.60
29701;BMP280;57917;51.380;-0.176;2023-08-08T08:39:03;101351.75;;;16.61
29701;BMP280;57917;51.380;-0.176;2023-08-08T08:44:55;101347.09;;;16.53
29701;BMP280;57917;51.380;-0.176;2023-08-08T08:50:43;101335.59;;;16.66
29701;BMP280;57917;51.380;-0.176;2023-08-08T08:56:32;101350.22;;;16.68
29701;BMP280;57917;51.380;-0.176;2023-08-08T09:02:22;101349.81;;;16.97
29701;BMP280;57917;51.380;-0.176;2023-08-08T09:08:10;101332.97;;;17.10
29701;BMP280;57917;51.380;-0.176;2023-08-08T09:13:58;101333.41;;;17.12
29701;BMP280;57917;51.380;-0.176;2023-08-08T09:19:48;101330.44;;;17.13
29701;BMP280;57917;51.380;-0.176;2023-08-08T09:25:35;101340.25;;;17.18
29701;BMP280;57917;51.380;-0.176;2023-08-08T09:31:25;101327.34;;;17.20
29701;BMP280;57917;51.380;-0.176;2023-08-08T09:37:17;101316.19;;;16.96
29701;BMP280;57917;51.380;-0.176;2023-08-08T09:43:07;101316.84;;;16.79
29701;BMP280;57917;51.380;-0.176;2023-08-08T09:48:57;101319.94;;;16.95
29701;BMP280;57917;51.380;-0.176;2023-08-08T09:54:44;101325.91;;;17.14
29701;BMP280;57917;51.380;-0.176;2023-08-08T10:00:32;101321.94;;;17.33
29701;BMP280;57917;51.380;-0.176;2023-08-08T10:06:22;101300.59;;;17.20
29701;BMP280;57917;51.380;-0.176;2023-08-08T10:12:11;101285.16;;;17.47
29701;BMP280;57917;51.380;-0.176;2023-08-08T10:18:00;101287.03;;;17.77
29701;BMP280;57917;51.380;-0.176;2023-08-08T10:24:05;101281.84;;;17.89
29701;BMP280;57917;51.380;-0.176;2023-08-08T10:29:53;101276.34;;;17.94
29701;BMP280;57917;51.380;-0.176;2023-08-08T10:35:40;101272.47;;;18.43
29701;BMP280;57917;51.380;-0.176;2023-08-08T10:41:27;101259.31;;;19.01
29701;BMP280;57917;51.380;-0.176;2023-08-08T10:47:14;101231.66;;;19.38
29701;BMP280;57917;51.380;-0.176;2023-08-08T10:53:08;101225.56;;;19.87
29701;BMP280;57917;51.380;-0.176;2023-08-08T10:58:56;101219.25;;;19.83
29701;BMP280;57917;51.380;-0.176;2023-08-08T11:04:43;101201.00;;;19.97
29701;BMP280;57917;51.380;-0.176;2023-08-08T11:10:35;101197.75;;;20.04
29701;BMP280;57917;51.380;-0.176;2023-08-08T11:16:22;101195.75;;;19.80
29701;BMP280;57917;51.380;-0.176;2023-08-08T11:22:10;101180.66;;;19.88
29701;BMP280;57917;51.380;-0.176;2023-08-08T11:27:58;101189.31;;;19.93
29701;BMP280;57917;51.380;-0.176;2023-08-08T11:33:47;101197.75;;;19.63
29701;BMP280;57917;51.380;-0.176;2023-08-08T11:39:34;101205.53;;;18.89
29701;BMP280;57917;51.380;-0.176;2023-08-08T11:45:21;101209.53;;;18.66
29701;BMP280;57917;51.380;-0.176;2023-08-08T11:51:08;101220.56;;;18.73
29701;BMP280;57917;51.380;-0.176;2023-08-08T11:56:56;101212.06;;;18.71
29701;BMP280;57917;51.380;-0.176;2023-08-08T12:02:43;101227.94;;;18.76
29701;BMP280;57917;51.380;-0.176;2023-08-08T12:08:31;101230.31;;;19.32
29701;BMP280;57917;51.380;-0.176;2023-08-08T12:14:18;101231.31;;;19.48
29701;BMP280;57917;51.380;-0.176;2023-08-08T12:20:07;101210.56;;;18.82
29701;BMP280;57917;51.380;-0.176;2023-08-08T12:25:56;101209.97;;;18.77
29701;BMP280;57917;51.380;-0.176;2023-08-08T12:31:43;101218.19;;;18.63
29701;BMP280;57917;51.380;-0.176;2023-08-08T12:37:30;101207.44;;;18.71
29701;BMP280;57917;51.380;-0.176;2023-08-08T12:43:16;101202.72;;;18.77
29701;BMP280;57917;51.380;-0.176;2023-08-08T12:49:04;101204.94;;;18.75
29701;BMP280;57917;51.380;-0.176;2023-08-08T12:54:51;101192.66;;;18.57
29701;BMP280;57917;51.380;-0.176;2023-08-08T13:00:40;101201.47;;;18.66
29701;BMP280;57917;51.380;-0.176;2023-08-08T13:06:27;101190.75;;;18.66
29701;BMP280;57917;51.380;-0.176;2023-08-08T13:12:13;101191.53;;;18.58
29701;BMP280;57917;51.380;-0.176;2023-08-08T13:18:00;101194.38;;;18.53
29701;BMP280;57917;51.380;-0.176;2023-08-08T13:23:47;101184.00;;;18.43
29701;BMP280;57917;51.380;-0.176;2023-08-08T13:29:34;101194.22;;;18.67
29701;BMP280;57917;51.380;-0.176;2023-08-08T13:35:21;101180.13;;;18.78
29701;BMP280;57917;51.380;-0.176;2023-08-08T13:41:07;101186.66;;;18.60
29701;BMP280;57917;51.380;-0.176;2023-08-08T13:46:55;101158.31;;;18.33
29701;BMP280;57917;51.380;-0.176;2023-08-08T13:52:44;101153.56;;;18.22
29701;BMP280;57917;51.380;-0.176;2023-08-08T13:58:33;101158.47;;;18.20
29701;BMP280;57917;51.380;-0.176;2023-08-08T14:04:23;101163.22;;;18.06
29701;BMP280;57917;51.380;-0.176;2023-08-08T14:10:11;101140.19;;;18.05
29701;BMP280;57917;51.380;-0.176;2023-08-08T14:15:58;101150.91;;;18.22
29701;BMP280;57917;51.380;-0.176;2023-08-08T14:21:45;101141.72;;;18.40
29701;BMP280;57917;51.380;-0.176;2023-08-08T14:27:32;101144.38;;;18.57
29701;BMP280;57917;51.380;-0.176;2023-08-08T14:33:19;101128.31;;;18.40
29701;BMP280;57917;51.380;-0.176;2023-08-08T14:39:06;101127.34;;;18.53
29701;BMP280;57917;51.380;-0.176;2023-08-08T14:44:53;101132.91;;;18.48
29701;BMP280;57917;51.380;-0.176;2023-08-08T14:50:40;101133.22;;;18.46
29701;BMP280;57917;51.380;-0.176;2023-08-08T14:56:27;101130.03;;;18.53
29701;BMP280;57917;51.380;-0.176;2023-08-08T15:02:14;101110.41;;;18.78
29701;BMP280;57917;51.380;-0.176;2023-08-08T15:08:01;101111.41;;;18.94
29701;BMP280;57917;51.380;-0.176;2023-08-08T15:13:48;101105.31;;;18.85
29701;BMP280;57917;51.380;-0.176;2023-08-08T15:19:35;101101.94;;;18.59
29701;BMP280;57917;51.380;-0.176;2023-08-08T15:25:24;101102.25;;;18.66
29701;BMP280;57917;51.380;-0.176;2023-08-08T15:31:11;101103.75;;;18.84
29701;BMP280;57917;51.380;-0.176;2023-08-08T15:36:58;101104.56;;;18.76
29701;BMP280;57917;51.380;-0.176;2023-08-08T15:42:46;101101.47;;;18.57
29701;BMP280;57917;51.380;-0.176;2023-08-08T15:48:33;101095.00;;;18.58
29701;BMP280;57917;51.380;-0.176;2023-08-08T15:54:20;101103.53;;;18.60
29701;BMP280;57917;51.380;-0.176;2023-08-08T16:00:09;101091.22;;;18.59
29701;BMP280;57917;51.380;-0.176;2023-08-08T16:06:00;101082.47;;;18.79
29701;BMP280;57917;51.380;-0.176;2023-08-08T16:11:47;101073.91;;;18.86
29701;BMP280;57917;51.380;-0.176;2023-08-08T16:17:34;101071.91;;;18.74
29701;BMP280;57917;51.380;-0.176;2023-08-08T16:23:22;101072.69;;;18.83
29701;BMP280;57917;51.380;-0.176;2023-08-08T16:29:08;101067.47;;;18.78
29701;BMP280;57917;51.380;-0.176;2023-08-08T16:34:56;101063.56;;;18.76
29701;BMP280;57917;51.380;-0.176;2023-08-08T16:40:42;101056.81;;;18.61
29701;BMP280;57917;51.380;-0.176;2023-08-08T16:46:29;101064.22;;;18.64
29701;BMP280;57917;51.380;-0.176;2023-08-08T16:52:16;101048.34;;;18.88
29701;BMP280;57917;51.380;-0.176;2023-08-08T16:58:03;101036.69;;;18.84
29701;BMP280;57917;51.380;-0.176;2023-08-08T17:03:50;101038.03;;;18.90
29701;BMP280;57917;51.380;-0.176;2023-08-08T17:09:36;101038.91;;;18.82
29701;BMP280;57917;51.380;-0.176;2023-08-08T17:15:23;101032.97;;;18.97
29701;BMP280;57917;51.380;-0.176;2023-08-08T17:21:10;101024.13;;;18.97
29701;BMP280;57917;51.380;-0.176;2023-08-08T17:27:00;101023.28;;;18.84
29701;BMP280;57917;51.380;-0.176;2023-08-08T17:32:46;101029.44;;;19.05
29701;BMP280;57917;51.380;-0.176;2023-08-08T17:38:34;101032.88;;;18.94
29701;BMP280;57917;51.380;-0.176;2023-08-08T17:44:23;101043.72;;;18.97
29701;BMP280;57917;51.380;-0.176;2023-08-08T17:50:10;101035.50;;;19.02
29701;BMP280;57917;51.380;-0.176;2023-08-08T17:56:06;101035.94;;;19.04
29701;BMP280;57917;51.380;-0.176;2023-08-08T18:01:54;101017.63;;;19.06
29701;BMP280;57917;51.380;-0.176;2023-08-08T18:07:41;101030.69;;;19.08
29701;BMP280;57917;51.380;-0.176;2023-08-08T18:13:28;101027.03;;;19.12
29701;BMP280;57917;51.380;-0.176;2023-08-08T18:19:15;101031.28;;;18.93
29701;BMP280;57917;51.380;-0.176;2023-08-08T18:25:06;101012.97;;;18.86
29701;BMP280;57917;51.380;-0.176;2023-08-08T18:30:53;101013.91;;;18.90
29701;BMP280;57917;51.380;-0.176;2023-08-08T18:36:40;101030.06;;;18.82
29701;BMP280;57917;51.380;-0.176;2023-08-08T18:42:27;101026.69;;;18.93
29701;BMP280;57917;51.380;-0.176;2023-08-08T18:48:14;101026.63;;;18.73
29701;BMP280;57917;51.380;-0.176;2023-08-08T18:54:00;101033.44;;;18.70
29701;BMP280;57917;51.380;-0.176;2023-08-08T18:59:47;101035.16;;;18.75
29701;BMP280;57917;51.380;-0.176;2023-08-08T19:05:37;101031.09;;;18.68
29701;BMP280;57917;51.380;-0.176;2023-08-08T19:11:24;101031.03;;;18.48
29701;BMP280;57917;51.380;-0.176;2023-08-08T19:17:13;101043.66;;;18.47
29701;BMP280;57917;51.380;-0.176;2023-08-08T19:23:00;101045.53;;;18.47
29701;BMP280;57917;51.380;-0.176;2023-08-08T19:28:47;101047.81;;;18.65
29701;BMP280;57917;51.380;-0.176;2023-08-08T19:34:34;101036.19;;;18.53
29701;BMP280;57917;51.380;-0.176;2023-08-08T19:40:21;101022.53;;;18.46
29701;BMP280;57917;51.380;-0.176;2023-08-08T19:46:08;101026.44;;;18.40
29701;BMP280;57917;51.380;-0.176;2023-08-08T19:51:57;101026.56;;;18.60
29701;BMP280;57917;51.380;-0.176;2023-08-08T19:57:44;101027.69;;;18.51
29701;BMP280;57917;51.380;-0.176;2023-08-08T20:03:31;101037.31;;;18.52
29701;BMP280;57917;51.380;-0.176;2023-08-08T20:09:19;101028.94;;;18.53
29701;BMP280;57917;51.380;-0.176;2023-08-08T20:15:08;101042.66;;;18.60
29701;BMP280;57917;51.380;-0.176;2023-08-08T20:20:56;101043.59;;;18.56
29701;BMP280;57917;51.380;-0.176;2023-08-08T20:26:43;101054.19;;;18.52
29701;BMP280;57917;51.380;-0.176;2023-08-08T20:32:33;101046.09;;;18.61
29701;BMP280;57917;51.380;-0.176;2023-08-08T20:38:20;101051.84;;;18.42
29701;BMP280;57917;51.380;-0.176;2023-08-08T20:44:07;101069.53;;;18.35
29701;BMP280;57917;51.380;-0.176;2023-08-08T20:49:54;101072.63;;;18.54
29701;BMP280;57917;51.380;-0.176;2023-08-08T20:55:41;101083.50;;;18.49
29701;BMP280;57917;51.380;-0.176;2023-08-08T21:01:27;101094.44;;;18.35
29701;BMP280;57917;51.380;-0.176;2023-08-08T21:07:17;101096.50;;;18.30
29701;BMP280;57917;51.380;-0.176;2023-08-08T21:13:05;101107.84;;;18.44
29701;BMP280;57917;51.380;-0.176;2023-08-08T21:18:54;101107.47;;;18.54
29701;BMP280;57917;51.380;-0.176;2023-08-08T21:24:40;101103.56;;;18.51
29701;BMP280;57917;51.380;-0.176;2023-08-08T21:30:27;101109.28;;;18.33
29701;BMP280;57917;51.380;-0.176;2023-08-08T21:36:14;101090.22;;;18.17
29701;BMP280;57917;51.380;-0.176;2023-08-08T21:42:01;101091.47;;;18.28
29701;BMP280;57917;51.380;-0.176;2023-08-08T21:47:48;101113.69;;;18.37
29701;BMP280;57917;51.380;-0.176;2023-08-08T21:53:35;101100.09;;;18.42
29701;BMP280;57917;51.380;-0.176;2023-08-08T21:59:21;101110.22;;;18.37
29701;BMP280;57917;51.380;-0.176;2023-08-08T22:05:10;101120.47;;;18.26
29701;BMP280;57917;51.380;-0.176;2023-08-08T22:10:57;101140.19;;;18.39
29701;BMP280;57917;51.380;-0.176;2023-08-08T22:16:44;101144.41;;;18.40
29701;BMP280;57917;51.380;-0.176;2023-08-08T22:22:31;101132.13;;;18.39
29701;BMP280;57917;51.380;-0.176;2023-08-08T22:28:20;101140.50;;;18.29
29701;BMP280;57917;51.380;-0.176;2023-08-08T22:34:07;101131.19;;;18.26
29701;BMP280;57917;51.380;-0.176;2023-08-08T22:39:54;101128.22;;;18.11
29701;BMP280;57917;51.380;-0.176;2023-08-08T22:45:41;101123.66;;;18.11
29701;BMP280;57917;51.380;-0.176;2023-08-08T22:51:30;101138.13;;;17.68
29701;BMP280;57917;51.380;-0.176;2023-08-08T22:57:17;101144.28;;;17.68
29701;BMP280;57917;51.380;-0.176;2023-08-08T23:03:04;101130.72;;;17.65
29701;BMP280;57917;51.380;-0.176;2023-08-08T23:08:51;101127.72;;;17.66
29701;BMP280;57917;51.380;-0.176;2023-08-08T23:14:38;101134.50;;;17.64
29701;BMP280;57917;51.380;-0.176;2023-08-08T23:20:24;101139.22;;;17.58
29701;BMP280;57917;51.380;-0.176;2023-08-08T23:26:11;101151.63;;;17.46
29701;BMP280;57917;51.380;-0.176;2023-08-08T23:31:58;101151.88;;;17.19
29701;BMP280;57917;51.380;-0.176;2023-08-08T23:37:45;101158.25;;;17.01
29701;BMP280;57917;51.380;-0.176;2023-08-08T23:43:32;101159.97;;;17.05
29701;BMP280;57917;51.380;-0.176;2023-08-08T23:49:18;101176.22;;;16.87
29701;BMP280;57917;51.380;-0.176;2023-08-08T23:55:05;101173.69;;;16.82
